Claysburg, PA (16625)

8:28 PM EST on January 23, 2017 (GMT -0500)
Claysburg (Near Queen,PA) | | Change Station
Active Advisory: Winter Weather Advisory Active Notice: Public Information Statement

Elev 1240 ft 40.26 °N, 78.49 °W | Updated 51 seconds ago

Snow
Snow
33.2 °F
Feels Like 29 °F
N
4.0
Wind Variable Wind from NE
Gusts 10.0 mph

Today
High -- | Low -- °F
--% Chance of Precip.
Yesterday
High -- | Low -- °F
Precip. -- in
Pressure 29.61 in
Visibility 9.0 miles
Clouds Overcast 900 ft
Windchill 29 °F
Dew Point 32 °F
Humidity 94%
Rainfall 0.74 in
Snow Depth Not available.
7:30 AM 5:21 PM
Waning Crescent, 15% visible
METAR KAOO 240053Z AUTO 05009KT 9SM UP OVC009 01/01 A2958 RMK AO2 UPB26SNE24 SLP025 P0000 T00110006
Pressure 29.61 in
Visibility 9.0 miles
Clouds Overcast 900 ft
Windchill 29 °F
Dew Point 32 °F
Humidity 94%
Rainfall 0.74 in
Snow Depth Not available.
7:30 AM 5:21 PM
Waning Crescent, 15% visible
METAR KAOO 240053Z AUTO 05009KT 9SM UP OVC009 01/01 A2958 RMK AO2 UPB26SNE24 SLP025 P0000 T00110006

Get Your Daily Forecast Email!

Thanks for signing up!

Be on the lookout for a verification email in your inbox.

You'll start receiving the daily forecast at 8 AM.

×

10-Day Weather Forecast

Almanac

Astronomy

Jan. 23, 2017 Rise Set
Actual Time
Civil Twilight
Nautical Twilight
Astronomical Twilight
Moon
Length of Visible Light
Length of Day
Tomorrow will be .
, % of the Moon is Illuminated

Today's Extremes

State Highs State Lows

Community

WunderPhotos

Upload Photos

1,962,540 photos uploaded!

WunderBlog® & News

Nearby

Air Quality

  Air Quality AQ Index Pollutant
Not available.

Snow Depth

Station Depth Elevation

Earthquake Activity

City Distance Mag. Time & Date
Minimum magnitude displayed is 2.5.

Coastal Water Temperatures

Place Temperature

Stations

Nearby Weather Stations

Station Location Temp. Windchill Dew Point Humidity Wind Precip. Elev Updated Type
                   

Watches & Warnings

Winter Weather Advisory
Issued: 7:12 PM EST Jan. 23, 2017 – National Weather Service

... Winter Weather Advisory remains in effect until 7 am EST
Tuesday...

* periods of rain sleet and snow will fall through early
Tuesday morning.

* Snow and sleet accumulations 1 to 2 inches valleys to 3 to 5
inches ridgetops. Snow and sleet accumulations will be of the
heavy and wet variety.

* Hazardous travel on snow covered roads. Longer travel times
overnight and Tuesday morning.

Precautionary/preparedness actions...

The Pennsylvania Department of Transportation reminds motorists
to adjust speeds based on driving conditions and to take it slow
in ice and snow.